createdAt,value
2019-05-01T00:00:47.653Z,0.00
2019-05-01T00:01:47.564Z,0.00
2019-05-01T00:02:47.453Z,0.00
2019-05-01T00:03:47.353Z,0.00
2019-05-01T00:04:47.251Z,0.00
2019-05-01T00:05:47.260Z,0.00
2019-05-01T00:06:47.062Z,0.00
2019-05-01T00:07:46.949Z,0.00
2019-05-01T00:08:46.849Z,0.00
2019-05-01T00:09:46.755Z,0.00
2019-05-01T00:10:46.647Z,0.00
2019-05-01T00:11:46.564Z,0.00
2019-05-01T00:12:46.446Z,0.00
2019-05-01T00:13:46.346Z,0.00
2019-05-01T00:14:46.246Z,0.00
2019-05-01T00:15:46.146Z,0.00
2019-05-01T00:16:46.062Z,0.00
2019-05-01T00:17:45.947Z,0.00
2019-05-01T00:18:45.847Z,0.00
2019-05-01T00:19:45.849Z,0.00
2019-05-01T00:20:45.646Z,0.00
2019-05-01T00:21:45.560Z,0.00
2019-05-01T00:22:45.461Z,0.00
2019-05-01T00:23:45.343Z,0.00
2019-05-01T00:24:45.244Z,0.00
2019-05-01T00:25:45.145Z,0.00
2019-05-01T00:26:45.150Z,0.00
2019-05-01T00:27:44.958Z,0.00
2019-05-01T00:28:44.842Z,0.00
2019-05-01T00:29:44.743Z,0.00
2019-05-01T00:30:44.642Z,0.00
2019-05-01T00:31:44.541Z,0.00
2019-05-01T00:32:44.459Z,0.00
2019-05-01T00:33:44.447Z,0.00
2019-05-01T00:34:44.240Z,0.00
2019-05-01T00:35:44.142Z,0.00
2019-05-01T00:36:44.041Z,0.00
2019-05-01T00:37:43.956Z,0.00
2019-05-01T00:38:43.842Z,0.00
2019-05-01T00:39:43.738Z,0.00
2019-05-01T00:40:43.640Z,0.00
2019-05-01T00:41:43.539Z,0.00
2019-05-01T00:42:43.453Z,0.00
2019-05-01T00:43:43.340Z,0.00
2019-05-01T00:44:43.237Z,0.00
2019-05-01T00:45:43.141Z,0.00
2019-05-01T00:46:43.055Z,0.00
2019-05-01T00:47:43.067Z,0.00
2019-05-01T00:48:42.838Z,0.00
2019-05-01T00:49:42.739Z,0.00
2019-05-01T00:50:42.637Z,0.00
2019-05-01T00:51:42.536Z,0.00
2019-05-01T00:52:42.451Z,0.00
2019-05-01T00:53:42.336Z,0.00
2019-05-01T00:54:42.389Z,0.00
2019-05-01T00:55:42.137Z,0.00
2019-05-01T00:56:42.035Z,0.00
2019-05-01T00:57:41.948Z,0.00
2019-05-01T00:58:41.837Z,0.00
2019-05-01T00:59:41.733Z,0.00
2019-05-01T01:00:43.184Z,0.00
2019-05-01T01:01:41.662Z,0.00
2019-05-01T01:02:41.450Z,0.00
2019-05-01T01:03:41.332Z,0.00
2019-05-01T01:04:41.234Z,0.00
2019-05-01T01:05:41.135Z,0.00
2019-05-01T01:06:41.034Z,0.00
2019-05-01T01:07:40.934Z,0.00
2019-05-01T01:08:40.959Z,0.00
2019-05-01T01:09:40.732Z,0.00
2019-05-01T01:10:40.633Z,0.00
2019-05-01T01:11:40.531Z,0.00
2019-05-01T01:12:40.432Z,0.00
2019-05-01T01:13:40.349Z,0.00
2019-05-01T01:14:40.233Z,0.00
2019-05-01T01:15:40.233Z,0.00
2019-05-01T01:16:40.031Z,0.00
2019-05-01T01:17:39.934Z,0.00
2019-05-01T01:18:39.911Z,0.00
2019-05-01T01:19:39.729Z,0.00
2019-05-01T01:20:39.632Z,0.00
2019-05-01T01:21:39.530Z,0.00
2019-05-01T01:22:39.432Z,0.00
2019-05-01T01:23:39.351Z,0.00
2019-05-01T01:24:39.229Z,0.00
2019-05-01T01:25:39.130Z,0.00
2019-05-01T01:26:39.028Z,0.00
2019-05-01T01:27:38.928Z,0.00
2019-05-01T01:28:38.863Z,0.00
2019-05-01T01:29:38.732Z,0.00
2019-05-01T01:30:38.629Z,0.00
2019-05-01T01:31:38.530Z,0.00
2019-05-01T01:32:38.428Z,0.00
2019-05-01T01:33:38.343Z,0.00
2019-05-01T01:34:38.235Z,0.00
2019-05-01T01:35:38.126Z,0.00
2019-05-01T01:36:38.028Z,0.00
2019-05-01T01:37:37.928Z,0.00
2019-05-01T01:38:37.842Z,0.00
2019-05-01T01:39:37.726Z,0.00
2019-05-01T01:40:37.626Z,0.00
2019-05-01T01:41:37.528Z,0.00
2019-05-01T01:42:37.428Z,0.00
2019-05-01T01:43:37.343Z,0.00
2019-05-01T01:44:37.227Z,0.00
2019-05-01T01:45:37.126Z,0.00
2019-05-01T01:46:37.027Z,0.00
2019-05-01T01:47:36.925Z,0.00
2019-05-01T01:48:36.841Z,0.00
2019-05-01T01:49:36.724Z,0.00
2019-05-01T01:50:36.628Z,0.00
2019-05-01T01:51:36.523Z,0.00
2019-05-01T01:52:36.425Z,0.00
2019-05-01T01:53:36.328Z,0.00
2019-05-01T01:54:36.240Z,0.00
2019-05-01T01:55:36.124Z,0.00
2019-05-01T01:56:36.023Z,0.00
2019-05-01T01:57:36.160Z,0.00
2019-05-01T01:58:35.822Z,0.00
2019-05-01T01:59:35.735Z,0.00
2019-05-01T02:00:35.624Z,0.00
2019-05-01T02:01:35.520Z,0.00
2019-05-01T02:02:35.424Z,0.00
2019-05-01T02:03:35.320Z,0.00
2019-05-01T02:04:35.342Z,0.00
2019-05-01T02:05:35.122Z,0.00
2019-05-01T02:06:35.021Z,0.00
2019-05-01T02:07:34.918Z,0.00
2019-05-01T02:08:34.818Z,0.00
2019-05-01T02:09:34.734Z,0.00
2019-05-01T02:10:42.594Z,0.00
2019-05-01T02:11:34.516Z,0.00
2019-05-01T02:12:34.528Z,0.00
2019-05-01T02:13:34.320Z,0.00
2019-05-01T02:14:34.234Z,0.00
2019-05-01T02:15:34.117Z,0.00
2019-05-01T02:16:34.019Z,0.00
2019-05-01T02:17:33.917Z,0.00
2019-05-01T02:18:33.943Z,0.00
2019-05-01T02:19:33.729Z,0.00
2019-05-01T02:20:33.617Z,0.00
2019-05-01T02:21:33.514Z,0.00
2019-05-01T02:22:33.415Z,0.00
2019-05-01T02:23:33.314Z,0.00
2019-05-01T02:24:33.230Z,0.00
2019-05-01T02:25:33.114Z,0.00
2019-05-01T02:26:33.012Z,0.00
2019-05-01T02:27:32.926Z,0.00
2019-05-01T02:28:32.815Z,0.00
2019-05-01T02:29:32.727Z,0.00
2019-05-01T02:30:32.616Z,0.00
2019-05-01T02:31:32.511Z,0.00
2019-05-01T02:32:32.411Z,0.00
2019-05-01T02:33:32.311Z,0.00
2019-05-01T02:34:32.229Z,0.00
2019-05-01T02:35:32.113Z,0.00
2019-05-01T02:36:32.011Z,0.00
2019-05-01T02:37:31.912Z,0.00
2019-05-01T02:38:31.810Z,0.00
2019-05-01T02:39:31.724Z,0.00
2019-05-01T02:40:31.607Z,0.00
2019-05-01T02:41:31.521Z,0.00
2019-05-01T02:42:31.408Z,0.00
2019-05-01T02:43:31.307Z,0.00
2019-05-01T02:44:31.223Z,0.00
2019-05-01T02:45:31.107Z,0.00
2019-05-01T02:46:31.009Z,0.00
2019-05-01T02:47:30.904Z,0.00
2019-05-01T02:48:30.805Z,0.00
2019-05-01T02:49:30.725Z,0.00
2019-05-01T02:50:30.610Z,0.00
2019-05-01T02:51:30.504Z,0.00
2019-05-01T02:52:30.458Z,0.00
2019-05-01T02:53:30.304Z,0.00
2019-05-01T02:54:30.204Z,0.00
2019-05-01T02:55:30.119Z,0.00
2019-05-01T02:56:30.003Z,0.00
2019-05-01T02:57:29.903Z,0.00
2019-05-01T02:58:29.803Z,0.00
2019-05-01T02:59:29.704Z,0.00
2019-05-01T03:00:29.620Z,0.00
2019-05-01T03:01:45.628Z,0.00
2019-05-01T03:02:29.400Z,0.00
2019-05-01T03:03:29.303Z,0.00
2019-05-01T03:04:29.203Z,0.00
2019-05-01T03:05:29.115Z,0.00
2019-05-01T03:06:28.999Z,0.00
2019-05-01T03:07:29.003Z,0.00
2019-05-01T03:08:28.879Z,0.00
2019-05-01T03:09:28.699Z,0.00
2019-05-01T03:10:28.610Z,0.00
2019-05-01T03:11:28.501Z,0.00
2019-05-01T03:12:28.395Z,0.00
2019-05-01T03:13:28.295Z,4.00
2019-05-01T03:14:28.195Z,4.00
2019-05-01T03:15:28.108Z,4.00
2019-05-01T03:16:27.993Z,0.00
2019-05-01T03:17:27.892Z,4.00
2019-05-01T03:18:27.794Z,4.00
2019-05-01T03:19:27.692Z,4.00
2019-05-01T03:20:27.609Z,4.00
2019-05-01T03:21:27.599Z,4.00
2019-05-01T03:22:27.404Z,8.00
2019-05-01T03:23:27.291Z,12.00
2019-05-01T03:24:27.190Z,8.00
2019-05-01T03:25:27.105Z,12.00
2019-05-01T03:26:26.991Z,16.00
2019-05-01T03:27:26.891Z,20.00
2019-05-01T03:28:26.904Z,24.00
2019-05-01T03:29:26.690Z,24.00
2019-05-01T03:30:26.607Z,28.00
2019-05-01T03:31:26.492Z,32.00
2019-05-01T03:32:26.389Z,40.00
2019-05-01T03:33:26.288Z,44.00
2019-05-01T03:34:26.199Z,52.00
2019-05-01T03:35:26.205Z,56.00
2019-05-01T03:36:26.009Z,64.00
2019-05-01T03:37:25.887Z,76.00
2019-05-01T03:38:25.790Z,84.00
2019-05-01T03:39:25.687Z,96.00
2019-05-01T03:40:25.601Z,108.00
2019-05-01T03:41:25.488Z,124.00
2019-05-01T03:42:25.494Z,140.00
2019-05-01T03:43:25.290Z,156.00
2019-05-01T03:44:25.194Z,172.00
2019-05-01T03:45:25.101Z,196.00
2019-05-01T03:46:24.990Z,208.00
2019-05-01T03:47:24.889Z,224.00
2019-05-01T03:48:24.787Z,244.00
2019-05-01T03:49:24.790Z,264.00
2019-05-01T03:50:24.598Z,284.00
2019-05-01T03:51:24.484Z,308.00
2019-05-01T03:52:24.387Z,332.00
2019-05-01T03:53:24.288Z,356.00
2019-05-01T03:54:24.190Z,376.00
2019-05-01T03:55:24.112Z,404.00
2019-05-01T03:56:24.093Z,424.00
2019-05-01T03:57:23.889Z,444.00
2019-05-01T03:58:23.789Z,468.00
2019-05-01T03:59:23.685Z,488.00
2019-05-01T04:00:23.599Z,516.00
2019-05-01T04:01:23.485Z,540.00
2019-05-01T04:02:33.213Z,552.00
2019-05-01T04:03:23.394Z,568.00
2019-05-01T04:04:23.188Z,576.00
2019-05-01T04:05:23.101Z,600.00
2019-05-01T04:06:22.987Z,620.00
2019-05-01T04:07:22.890Z,640.00
2019-05-01T04:08:22.793Z,660.00
2019-05-01T04:09:22.702Z,668.00
2019-05-01T04:10:22.745Z,684.00
2019-05-01T04:11:22.492Z,704.00
2019-05-01T04:12:22.390Z,708.00
2019-05-01T04:13:22.292Z,720.00
2019-05-01T04:14:22.193Z,728.00
2019-05-01T04:15:22.093Z,724.00
2019-05-01T04:16:22.014Z,744.00
2019-05-01T04:17:22.003Z,752.00
2019-05-01T04:18:21.794Z,724.00
2019-05-01T04:19:21.694Z,728.00
2019-05-01T04:20:21.605Z,740.00
2019-05-01T04:21:21.512Z,712.00
2019-05-01T04:22:21.400Z,616.00
2019-05-01T04:23:21.300Z,620.00
2019-05-01T04:24:21.326Z,636.00
2019-05-01T04:25:21.107Z,584.00
2019-05-01T04:26:21.016Z,556.00
2019-05-01T04:27:20.902Z,584.00
2019-05-01T04:28:20.809Z,544.00
2019-05-01T04:29:20.705Z,536.00
2019-05-01T04:30:20.734Z,592.00
2019-05-01T04:31:20.542Z,612.00
2019-05-01T04:32:20.408Z,692.00
2019-05-01T04:33:20.314Z,740.00
2019-05-01T04:34:20.212Z,832.00
2019-05-01T04:35:20.114Z,948.00
2019-05-01T04:36:20.029Z,1016.00
2019-05-01T04:37:19.917Z,1116.00
2019-05-01T04:38:19.817Z,1252.00
2019-05-01T04:39:19.716Z,1324.00
2019-05-01T04:40:19.628Z,1376.00
2019-05-01T04:41:19.535Z,1416.00
2019-05-01T04:42:19.424Z,1420.00
2019-05-01T04:43:19.325Z,1464.00
2019-05-01T04:44:19.230Z,1552.00
2019-05-01T04:45:19.134Z,1628.00
2019-05-01T04:46:19.060Z,1720.00
2019-05-01T04:47:18.947Z,1748.00
2019-05-01T04:48:18.833Z,1728.00
2019-05-01T04:49:18.742Z,1752.00
2019-05-01T04:50:18.638Z,1792.00
2019-05-01T04:51:18.554Z,1828.00
2019-05-01T04:52:18.453Z,1848.00
2019-05-01T04:53:18.343Z,1944.00
2019-05-01T04:54:18.245Z,2260.00
2019-05-01T04:55:18.150Z,2480.00
2019-05-01T04:56:18.063Z,2736.00
2019-05-01T04:57:18.009Z,2936.00
2019-05-01T04:58:17.853Z,3156.00
2019-05-01T04:59:17.752Z,3460.00
2019-05-01T05:00:17.656Z,3676.00
2019-05-01T05:01:17.571Z,3788.00
2019-05-01T05:02:17.460Z,3832.00
2019-05-01T05:03:17.361Z,3808.00
2019-05-01T05:04:17.264Z,3776.00
2019-05-01T05:05:17.166Z,3784.00
2019-05-01T05:06:17.085Z,3832.00
2019-05-01T05:07:16.971Z,3952.00
2019-05-01T05:08:16.877Z,4164.00
2019-05-01T05:09:16.778Z,4476.00
2019-05-01T05:10:16.681Z,4888.00
2019-05-01T05:11:16.595Z,5180.00
2019-05-01T05:12:16.484Z,5332.00
2019-05-01T05:13:16.387Z,5388.00
2019-05-01T05:14:16.293Z,5444.00
2019-05-01T05:15:16.191Z,5556.00
2019-05-01T05:16:16.108Z,5632.00
2019-05-01T05:17:16.000Z,5708.00
2019-05-01T05:18:15.898Z,5860.00
2019-05-01T05:19:15.805Z,6072.00
2019-05-01T05:20:15.702Z,6352.00
2019-05-01T05:21:15.608Z,6720.00
2019-05-01T05:22:16.596Z,7172.00
2019-05-01T05:23:15.415Z,7572.00
2019-05-01T05:24:15.317Z,7940.00
2019-05-01T05:25:15.220Z,8100.00
2019-05-01T05:26:15.121Z,8528.00
2019-05-01T05:27:15.038Z,8884.00
2019-05-01T05:28:14.930Z,9252.00
2019-05-01T05:29:14.831Z,9632.00
2019-05-01T05:30:14.782Z,8828.00
2019-05-01T05:31:14.643Z,8760.00
2019-05-01T05:32:14.553Z,8948.00
2019-05-01T05:33:18.485Z,9200.00
2019-05-01T05:34:14.349Z,9544.00
2019-05-01T05:35:14.252Z,10116.00
2019-05-01T05:36:14.154Z,10888.00
2019-05-01T05:37:14.071Z,13060.00
2019-05-01T05:38:13.961Z,13812.00
2019-05-01T05:39:13.865Z,13276.00
2019-05-01T05:40:13.773Z,12772.00
2019-05-01T05:41:13.673Z,11984.00
2019-05-01T05:42:13.594Z,10944.00
2019-05-01T05:43:13.479Z,10536.00
2019-05-01T05:44:13.382Z,9832.00
2019-05-01T05:45:13.286Z,8516.00
2019-05-01T05:46:13.197Z,7932.00
2019-05-01T05:47:13.114Z,7816.00
2019-05-01T05:48:12.999Z,7880.00
2019-05-01T05:49:12.905Z,8144.00
2019-05-01T05:50:12.810Z,8408.00
2019-05-01T05:51:12.713Z,8452.00
2019-05-01T05:52:12.634Z,8528.00
2019-05-01T05:53:12.522Z,8596.00
2019-05-01T05:54:12.427Z,8932.00
2019-05-01T05:55:12.329Z,9436.00
2019-05-01T05:56:12.248Z,9784.00
2019-05-01T05:57:12.154Z,9968.00
2019-05-01T05:58:12.044Z,9924.00
2019-05-01T05:59:11.951Z,9692.00
2019-05-01T06:00:11.899Z,9340.00
2019-05-01T06:01:11.757Z,8984.00
2019-05-01T06:02:11.676Z,8816.00
2019-05-01T06:03:11.568Z,8508.00
2019-05-01T06:04:11.470Z,8308.00
2019-05-01T06:05:11.374Z,8116.00
2019-05-01T06:06:11.282Z,7832.00
2019-05-01T06:07:11.184Z,7396.00
2019-05-01T06:08:11.213Z,7168.00
2019-05-01T06:09:13.928Z,7308.00
2019-05-01T06:10:10.897Z,7368.00
2019-05-01T06:11:10.801Z,7772.00
2019-05-01T06:12:10.708Z,7964.00
2019-05-01T06:13:10.623Z,8272.00
2019-05-01T06:14:10.515Z,8784.00
2019-05-01T06:15:10.522Z,9056.00
2019-05-01T06:16:12.265Z,9120.00
2019-05-01T06:17:10.228Z,9168.00
2019-05-01T06:18:10.152Z,9480.00
2019-05-01T06:19:14.614Z,9924.00
2019-05-01T06:20:09.940Z,10152.00
2019-05-01T06:21:12.735Z,10260.00
2019-05-01T06:22:11.339Z,10396.00
2019-05-01T06:23:09.668Z,10760.00
2019-05-01T06:24:09.558Z,11156.00
2019-05-01T06:25:21.382Z,11608.00
2019-05-01T06:26:10.281Z,12344.00
2019-05-01T06:27:13.578Z,13564.00
2019-05-01T06:28:09.191Z,15196.00
2019-05-01T06:29:09.182Z,17984.00
2019-05-01T06:30:11.118Z,18528.00
2019-05-01T06:31:08.888Z,18304.00
2019-05-01T06:32:08.795Z,18368.00
2019-05-01T06:33:09.513Z,19328.00
2019-05-01T06:34:08.603Z,21568.00
2019-05-01T06:35:08.509Z,28608.00
2019-05-01T06:36:08.737Z,21504.00
2019-05-01T06:37:08.317Z,28320.00
2019-05-01T06:38:08.237Z,21696.00
2019-05-01T06:39:11.880Z,16280.00
2019-05-01T06:40:08.030Z,16384.00
2019-05-01T06:41:07.936Z,18208.00
2019-05-01T06:42:09.887Z,20288.00
2019-05-01T06:43:07.870Z,17984.00
2019-05-01T06:44:07.689Z,14772.00
2019-05-01T06:45:07.557Z,15316.00
2019-05-01T06:46:07.465Z,15420.00
2019-05-01T06:47:07.366Z,15924.00
2019-05-01T06:48:07.288Z,16324.00
2019-05-01T06:49:07.218Z,17504.00
2019-05-01T06:50:07.531Z,17856.00
2019-05-01T06:51:06.989Z,18752.00
2019-05-01T06:52:06.895Z,19552.00
2019-05-01T06:53:06.817Z,20224.00
2019-05-01T06:54:11.096Z,20640.00
2019-05-01T06:55:06.618Z,21184.00
2019-05-01T06:56:06.520Z,23296.00
2019-05-01T06:57:06.423Z,29440.00
2019-05-01T06:58:06.345Z,36128.00
2019-05-01T06:59:06.234Z,40640.00
2019-05-01T07:00:08.176Z,26304.00
2019-05-01T07:01:06.048Z,25216.00
2019-05-01T07:02:05.961Z,24928.00
2019-05-01T07:03:10.058Z,25792.00
2019-05-01T07:04:05.764Z,28384.00
2019-05-01T07:05:09.105Z,25568.00
2019-05-01T07:06:14.119Z,26496.00
2019-05-01T07:07:06.640Z,33312.00
2019-05-01T07:08:05.410Z,31584.00
2019-05-01T07:09:07.016Z,47776.00
2019-05-01T07:10:05.208Z,45728.00
2019-05-01T07:11:05.112Z,43744.00
2019-05-01T07:12:05.020Z,45696.00
2019-05-01T07:13:06.480Z,33344.00
2019-05-01T07:14:04.847Z,24448.00
2019-05-01T07:15:04.739Z,24992.00
2019-05-01T07:16:04.647Z,42560.00
2019-05-01T07:17:04.553Z,46528.00
2019-05-01T07:18:04.463Z,49120.00
2019-05-01T07:19:06.052Z,52448.00
2019-05-01T07:20:04.274Z,54112.00
2019-05-01T07:21:04.199Z,50112.00
2019-05-01T07:22:06.362Z,54880.00
2019-05-01T07:23:03.998Z,43008.00
2019-05-01T07:24:03.922Z,44032.00
2019-05-01T07:25:05.140Z,34624.00
2019-05-01T07:26:04.022Z,33888.00
2019-05-01T07:27:03.641Z,42016.00
2019-05-01T07:28:03.540Z,31040.00
2019-05-01T07:29:06.126Z,39136.00
2019-05-01T07:30:03.360Z,43872.00
2019-05-01T07:31:05.136Z,28736.00
2019-05-01T07:32:06.306Z,41088.00
2019-05-01T07:33:03.087Z,32864.00
2019-05-01T07:34:15.829Z,39648.00
2019-05-01T07:35:03.954Z,41280.00
2019-05-01T07:36:06.970Z,29504.00
2019-05-01T07:37:02.729Z,22880.00
2019-05-01T07:38:03.459Z,25152.00
2019-05-01T07:39:02.557Z,28416.00
2019-05-01T07:40:02.453Z,37440.00
2019-05-01T07:41:03.306Z,22208.00
2019-05-01T07:42:02.272Z,19648.00
2019-05-01T07:43:02.176Z,19200.00
2019-05-01T07:44:02.103Z,19168.00
2019-05-01T07:45:03.846Z,19872.00
2019-05-01T07:46:02.383Z,20992.00
2019-05-01T07:47:01.927Z,22656.00
2019-05-01T07:48:05.565Z,24576.00
2019-05-01T07:49:01.648Z,29216.00
2019-05-01T07:50:01.545Z,35872.00
2019-05-01T07:51:01.833Z,51104.00
2019-05-01T07:52:01.801Z,63488.00
2019-05-01T07:53:01.268Z,57984.00
2019-05-01T07:54:04.071Z,42944.00
2019-05-01T07:55:01.090Z,31712.00
2019-05-01T07:56:00.999Z,22656.00
2019-05-01T07:57:03.162Z,19936.00
2019-05-01T07:58:00.816Z,18656.00
2019-05-01T07:59:00.726Z,18176.00
2019-05-01T08:00:03.602Z,20032.00
2019-05-01T08:01:00.545Z,17596.00
2019-05-01T08:02:00.452Z,15032.00
2019-05-01T08:03:02.675Z,15404.00
2019-05-01T08:04:00.270Z,19968.00
2019-05-01T08:05:00.194Z,19712.00
2019-05-01T08:06:00.087Z,19328.00
2019-05-01T08:06:59.995Z,17380.00
2019-05-01T08:08:02.917Z,17984.00
2019-05-01T08:08:59.815Z,20320.00
2019-05-01T08:09:59.737Z,23488.00
2019-05-01T08:10:59.891Z,27936.00
2019-05-01T08:11:59.540Z,27296.00
2019-05-01T08:13:00.366Z,30304.00
2019-05-01T08:14:07.301Z,37248.00
2019-05-01T08:14:59.280Z,27488.00
2019-05-01T08:16:02.130Z,26720.00
2019-05-01T08:16:59.081Z,26752.00
2019-05-01T08:17:58.993Z,39424.00
2019-05-01T08:19:03.580Z,61632.00
2019-05-01T08:19:58.825Z,69376.00
2019-05-01T08:20:58.718Z,72832.00
2019-05-01T08:22:01.745Z,79232.00
2019-05-01T08:22:58.533Z,75840.00
2019-05-01T08:23:58.440Z,77920.00
2019-05-01T08:24:59.907Z,79488.00
2019-05-01T08:25:58.259Z,74496.00
2019-05-01T08:26:58.168Z,80224.00
2019-05-01T08:27:58.217Z,80640.00
2019-05-01T08:28:57.989Z,81632.00
2019-05-01T08:29:57.911Z,79264.00
2019-05-01T08:30:57.815Z,77632.00
2019-05-01T08:31:58.784Z,82432.00
2019-05-01T08:32:57.628Z,82304.00
2019-05-01T08:33:57.540Z,81472.00
2019-05-01T08:35:00.582Z,80384.00
2019-05-01T08:35:57.359Z,78016.00
2019-05-01T08:36:57.270Z,70240.00
2019-05-01T08:37:58.547Z,65920.00
2019-05-01T08:38:57.111Z,62944.00
2019-05-01T08:39:57.023Z,62048.00
2019-05-01T08:40:56.917Z,60416.00
2019-05-01T08:41:56.932Z,63072.00
2019-05-01T08:42:56.743Z,64608.00
2019-05-01T08:43:56.650Z,63424.00
2019-05-01T08:44:59.953Z,62464.00
2019-05-01T08:45:56.490Z,65376.00
2019-05-01T08:46:56.388Z,67200.00
2019-05-01T08:47:56.807Z,70016.00
2019-05-01T08:48:56.317Z,76352.00
2019-05-01T08:49:56.127Z,77536.00
2019-05-01T08:50:59.214Z,78368.00
2019-05-01T08:51:55.949Z,75680.00
2019-05-01T08:52:55.861Z,55712.00
2019-05-01T08:53:57.860Z,64512.00
2019-05-01T08:54:55.689Z,81056.00
2019-05-01T08:55:55.724Z,87392.00
2019-05-01T08:56:57.970Z,88160.00
2019-05-01T08:57:55.432Z,89472.00
2019-05-01T08:58:55.339Z,87232.00
2019-05-01T08:59:55.615Z,82368.00
2019-05-01T09:00:55.184Z,78400.00
2019-05-01T09:02:08.494Z,77408.00
2019-05-01T09:03:07.354Z,76064.00
2019-05-01T09:03:55.732Z,77184.00
2019-05-01T09:05:01.932Z,78656.00
2019-05-01T09:05:57.362Z,78624.00
2019-05-01T09:06:54.652Z,74592.00
2019-05-01T09:07:56.037Z,41728.00
2019-05-01T09:08:54.525Z,37440.00
2019-05-01T09:09:54.497Z,81856.00
2019-05-01T09:10:54.647Z,62240.00
2019-05-01T09:11:54.765Z,47712.00
2019-05-01T09:12:54.136Z,41376.00
2019-05-01T09:13:54.683Z,51168.00
2019-05-01T09:14:53.968Z,80096.00
2019-05-01T09:15:53.899Z,81888.00
2019-05-01T09:16:53.901Z,92448.00
2019-05-01T09:17:53.707Z,79456.00
2019-05-01T09:18:53.624Z,82880.00
2019-05-01T09:19:53.534Z,55488.00
2019-05-01T09:20:53.451Z,52672.00
2019-05-01T09:21:53.394Z,73664.00
2019-05-01T09:22:53.277Z,86656.00
2019-05-01T09:23:53.323Z,77280.00
2019-05-01T09:24:53.104Z,81696.00
2019-05-01T09:25:53.027Z,76992.00
2019-05-01T09:26:52.946Z,89696.00
2019-05-01T09:27:52.848Z,86848.00
2019-05-01T09:28:52.760Z,45792.00
2019-05-01T09:29:52.842Z,49376.00
2019-05-01T09:30:52.693Z,67488.00
2019-05-01T09:31:52.517Z,75136.00
2019-05-01T09:32:54.617Z,96320.00
2019-05-01T09:33:52.326Z,48384.00
2019-05-01T09:34:52.243Z,41440.00
2019-05-01T09:35:52.158Z,31840.00
2019-05-01T09:36:52.084Z,31712.00
2019-05-01T09:37:52.114Z,31904.00
2019-05-01T09:38:51.899Z,32832.00
2019-05-01T09:39:51.813Z,37472.00
2019-05-01T09:40:51.731Z,39904.00
2019-05-01T09:41:51.653Z,37536.00
2019-05-01T09:42:54.585Z,35264.00
2019-05-01T09:43:51.464Z,32320.00
2019-05-01T09:44:51.480Z,36832.00
2019-05-01T09:45:51.292Z,32992.00
2019-05-01T09:46:51.216Z,45120.00
2019-05-01T09:47:51.114Z,25568.00
2019-05-01T09:48:51.026Z,26592.00
2019-05-01T09:49:53.936Z,24928.00
2019-05-01T09:50:50.975Z,27424.00
2019-05-01T09:51:50.779Z,32448.00
2019-05-01T09:52:50.677Z,33856.00
2019-05-01T09:53:50.585Z,33088.00
2019-05-01T09:54:50.501Z,51072.00
2019-05-01T09:55:50.409Z,38400.00
2019-05-01T09:56:50.336Z,51200.00
2019-05-01T09:57:50.236Z,44416.00
2019-05-01T09:58:50.146Z,60608.00
2019-05-01T09:59:50.056Z,106912.00
2019-05-01T10:00:52.732Z,111360.00
2019-05-01T10:01:49.896Z,94784.00
2019-05-01T10:02:49.792Z,29504.00
2019-05-01T10:03:54.458Z,26560.00
2019-05-01T10:04:49.618Z,25696.00
2019-05-01T10:05:49.530Z,25344.00
2019-05-01T10:06:52.274Z,25184.00
2019-05-01T10:07:49.354Z,25632.00
2019-05-01T10:08:49.266Z,25792.00
2019-05-01T10:09:52.235Z,27232.00
2019-05-01T10:10:49.092Z,27712.00
2019-05-01T10:11:49.018Z,28288.00
2019-05-01T10:12:48.916Z,30304.00
2019-05-01T10:13:48.829Z,29728.00
2019-05-01T10:14:48.738Z,29920.00
2019-05-01T10:15:48.651Z,38944.00
2019-05-01T10:16:48.576Z,46080.00
2019-05-01T10:17:48.475Z,42496.00
2019-05-01T10:18:48.388Z,46944.00
2019-05-01T10:19:50.147Z,50624.00
2019-05-01T10:20:48.212Z,73920.00
2019-05-01T10:21:48.120Z,46560.00
2019-05-01T10:22:48.045Z,61248.00
2019-05-01T10:23:51.681Z,50240.00
2019-05-01T10:24:47.855Z,70752.00
2019-05-01T10:25:48.342Z,62176.00
2019-05-01T10:26:47.678Z,66560.00
2019-05-01T10:27:47.606Z,85920.00
2019-05-01T10:28:49.968Z,70624.00
2019-05-01T10:29:47.420Z,52160.00
2019-05-01T10:30:47.324Z,41216.00
2019-05-01T10:31:47.760Z,56992.00
2019-05-01T10:32:47.167Z,44704.00
2019-05-01T10:33:47.062Z,56864.00
2019-05-01T10:34:46.982Z,119520.00
2019-05-01T10:35:46.887Z,56512.00
2019-05-01T10:36:49.743Z,107840.00
2019-05-01T10:37:46.727Z,109504.00
2019-05-01T10:38:46.908Z,114944.00
2019-05-01T10:39:50.171Z,98336.00
2019-05-01T10:40:46.452Z,94176.00
2019-05-01T10:41:47.872Z,88320.00
2019-05-01T10:42:46.292Z,113568.00
2019-05-01T10:43:46.188Z,74560.00
2019-05-01T10:44:46.102Z,96704.00
2019-05-01T10:45:46.019Z,114976.00
2019-05-01T10:46:45.930Z,57792.00
2019-05-01T10:47:45.857Z,101280.00
2019-05-01T10:48:45.759Z,87200.00
2019-05-01T10:49:45.671Z,52800.00
2019-05-01T10:50:45.586Z,91328.00
2019-05-01T10:51:45.498Z,49600.00
2019-05-01T10:52:45.418Z,65728.00
2019-05-01T10:53:45.342Z,79136.00
2019-05-01T10:54:46.582Z,55360.00
2019-05-01T10:55:45.156Z,52096.00
2019-05-01T10:56:45.075Z,36992.00
2019-05-01T10:57:44.988Z,43040.00
2019-05-01T10:58:44.915Z,112480.00
2019-05-01T10:59:44.838Z,118848.00
2019-05-01T11:00:44.728Z,115552.00
2019-05-01T11:01:44.646Z,108416.00
2019-05-01T11:02:44.551Z,93760.00
2019-05-01T11:03:44.481Z,44096.00
2019-05-01T11:04:44.391Z,57216.00
2019-05-01T11:05:55.382Z,78752.00
2019-05-01T11:06:44.210Z,102208.00
2019-05-01T11:07:44.234Z,106816.00
2019-05-01T11:08:44.056Z,89440.00
2019-05-01T11:09:43.953Z,100224.00
2019-05-01T11:10:43.867Z,114208.00
2019-05-01T11:11:43.780Z,110560.00
2019-05-01T11:12:43.696Z,110656.00
2019-05-01T11:13:43.630Z,88896.00
2019-05-01T11:14:43.636Z,108960.00
2019-05-01T11:15:43.438Z,111776.00
2019-05-01T11:16:43.354Z,112512.00
2019-05-01T11:17:43.269Z,115808.00
2019-05-01T11:18:43.195Z,125888.00
2019-05-01T11:19:43.098Z,111424.00
2019-05-01T11:20:43.013Z,104352.00
2019-05-01T11:21:43.049Z,111456.00
2019-05-01T11:22:42.841Z,110784.00
2019-05-01T11:23:42.807Z,107232.00
2019-05-01T11:24:42.673Z,108928.00
2019-05-01T11:25:44.659Z,104320.00
2019-05-01T11:26:42.502Z,107456.00
2019-05-01T11:27:42.419Z,110880.00
2019-05-01T11:28:42.470Z,103840.00
2019-05-01T11:29:42.250Z,102560.00
2019-05-01T11:30:42.166Z,100096.00
2019-05-01T11:31:42.081Z,95744.00
2019-05-01T11:32:41.997Z,99552.00
2019-05-01T11:33:41.928Z,90560.00
2019-05-01T11:34:41.829Z,92320.00
2019-05-01T11:35:41.854Z,74080.00
2019-05-01T11:36:41.662Z,63008.00
2019-05-01T11:37:41.578Z,88480.00
2019-05-01T11:38:41.509Z,66208.00
2019-05-01T11:39:42.164Z,68960.00
2019-05-01T11:40:41.324Z,83648.00
2019-05-01T11:41:41.243Z,51872.00
2019-05-01T11:42:41.262Z,50112.00
2019-05-01T11:43:41.089Z,41984.00
2019-05-01T11:44:40.987Z,41056.00
2019-05-01T11:45:40.904Z,65632.00
2019-05-01T11:46:40.819Z,90528.00
2019-05-01T11:47:40.734Z,63840.00
2019-05-01T11:48:40.665Z,40256.00
2019-05-01T11:49:40.670Z,40672.00
2019-05-01T11:50:40.490Z,34944.00
2019-05-01T11:51:40.395Z,30560.00
2019-05-01T11:52:40.311Z,28608.00
2019-05-01T11:53:40.242Z,27296.00
2019-05-01T11:54:40.141Z,27264.00
2019-05-01T11:55:40.055Z,30720.00
2019-05-01T11:56:40.075Z,30176.00
2019-05-01T11:57:39.882Z,30016.00
2019-05-01T11:58:39.798Z,31424.00
2019-05-01T11:59:39.728Z,29824.00
2019-05-01T12:00:39.626Z,27744.00
2019-05-01T12:01:39.539Z,29024.00
2019-05-01T12:02:39.451Z,31232.00
2019-05-01T12:03:39.473Z,43712.00
2019-05-01T12:04:39.294Z,85376.00
2019-05-01T12:05:39.190Z,85696.00
2019-05-01T12:06:39.105Z,47904.00
2019-05-01T12:07:39.015Z,91104.00
2019-05-01T12:08:38.931Z,94144.00
2019-05-01T12:09:38.858Z,94368.00
2019-05-01T12:10:38.864Z,93152.00
2019-05-01T12:11:38.667Z,95008.00
2019-05-01T12:12:38.586Z,81664.00
2019-05-01T12:13:43.980Z,78048.00